Airport ICAO


00:48 UTC

0°C

Clear skies


An affordable passengers' Moving Map for your aircraft. Made for the iPad and the iPhone
More information here

EGLF Farnborough


London UNITED KINGDOM   VFR CAVOK


METAR EGLF 222050Z 06007KT CAVOK M00/M04 Q1023 3h58min

TAF EGLF 221656Z 2218/2222 07008KT 9999 FEW035 PROB30 TEMPO 2218/2222 8000 7h52min





NOTAMS

OPEN